sensor_id;sensor_type;location;lat;lon;timestamp;P1;durP1;ratioP1;P2;durP2;ratioP2
20814;SDS011;10568;48.176;16.316;2023-12-07T00:01:00;7.33;;;4.53;;
20814;SDS011;10568;48.176;16.316;2023-12-07T00:03:26;7.80;;;5.13;;
20814;SDS011;10568;48.176;16.316;2023-12-07T00:05:52;8.80;;;4.97;;
20814;SDS011;10568;48.176;16.316;2023-12-07T00:08:18;9.17;;;5.43;;
20814;SDS011;10568;48.176;16.316;2023-12-07T00:10:44;8.83;;;5.30;;
20814;SDS011;10568;48.176;16.316;2023-12-07T00:13:10;8.03;;;5.33;;
20814;SDS011;10568;48.176;16.316;2023-12-07T00:15:36;7.90;;;5.57;;
20814;SDS011;10568;48.176;16.316;2023-12-07T00:18:02;9.10;;;5.43;;
20814;SDS011;10568;48.176;16.316;2023-12-07T00:20:28;10.07;;;4.57;;
20814;SDS011;10568;48.176;16.316;2023-12-07T00:22:54;7.30;;;5.27;;
20814;SDS011;10568;48.176;16.316;2023-12-07T00:25:26;8.57;;;4.37;;
20814;SDS011;10568;48.176;16.316;2023-12-07T00:27:52;8.37;;;5.13;;
20814;SDS011;10568;48.176;16.316;2023-12-07T00:30:18;8.50;;;5.03;;
20814;SDS011;10568;48.176;16.316;2023-12-07T00:32:43;8.33;;;5.17;;
20814;SDS011;10568;48.176;16.316;2023-12-07T00:35:12;7.27;;;4.67;;
20814;SDS011;10568;48.176;16.316;2023-12-07T00:37:39;7.97;;;5.30;;
20814;SDS011;10568;48.176;16.316;2023-12-07T00:40:05;6.67;;;4.50;;
20814;SDS011;10568;48.176;16.316;2023-12-07T00:42:33;7.13;;;4.57;;
20814;SDS011;10568;48.176;16.316;2023-12-07T00:45:01;9.87;;;5.30;;
20814;SDS011;10568;48.176;16.316;2023-12-07T00:47:27;8.97;;;5.07;;
20814;SDS011;10568;48.176;16.316;2023-12-07T00:49:53;7.87;;;4.77;;
20814;SDS011;10568;48.176;16.316;2023-12-07T00:52:19;7.30;;;4.73;;
20814;SDS011;10568;48.176;16.316;2023-12-07T00:54:44;6.80;;;4.07;;
20814;SDS011;10568;48.176;16.316;2023-12-07T00:57:10;7.33;;;4.23;;
20814;SDS011;10568;48.176;16.316;2023-12-07T00:59:36;9.97;;;5.30;;
20814;SDS011;10568;48.176;16.316;2023-12-07T01:02:02;7.87;;;4.30;;
20814;SDS011;10568;48.176;16.316;2023-12-07T01:04:30;8.70;;;4.83;;
20814;SDS011;10568;48.176;16.316;2023-12-07T01:06:56;8.13;;;5.00;;
20814;SDS011;10568;48.176;16.316;2023-12-07T01:09:22;7.80;;;4.60;;
20814;SDS011;10568;48.176;16.316;2023-12-07T01:11:49;10.20;;;5.50;;
20814;SDS011;10568;48.176;16.316;2023-12-07T01:14:16;8.70;;;5.03;;
20814;SDS011;10568;48.176;16.316;2023-12-07T01:16:42;6.60;;;4.63;;
20814;SDS011;10568;48.176;16.316;2023-12-07T01:19:09;8.83;;;5.50;;
20814;SDS011;10568;48.176;16.316;2023-12-07T01:21:39;9.77;;;5.73;;
20814;SDS011;10568;48.176;16.316;2023-12-07T01:24:06;7.83;;;4.83;;
20814;SDS011;10568;48.176;16.316;2023-12-07T01:26:35;8.07;;;4.83;;
20814;SDS011;10568;48.176;16.316;2023-12-07T01:29:01;6.93;;;4.83;;
20814;SDS011;10568;48.176;16.316;2023-12-07T01:31:27;8.03;;;4.67;;
20814;SDS011;10568;48.176;16.316;2023-12-07T01:33:54;10.00;;;5.53;;
20814;SDS011;10568;48.176;16.316;2023-12-07T01:36:20;7.67;;;4.67;;
20814;SDS011;10568;48.176;16.316;2023-12-07T01:38:45;8.07;;;4.73;;
20814;SDS011;10568;48.176;16.316;2023-12-07T01:41:11;8.50;;;4.77;;
20814;SDS011;10568;48.176;16.316;2023-12-07T01:43:37;6.57;;;4.37;;
20814;SDS011;10568;48.176;16.316;2023-12-07T01:46:09;9.07;;;4.97;;
20814;SDS011;10568;48.176;16.316;2023-12-07T01:48:36;9.17;;;5.13;;
20814;SDS011;10568;48.176;16.316;2023-12-07T01:51:02;7.93;;;4.43;;
20814;SDS011;10568;48.176;16.316;2023-12-07T01:53:28;6.77;;;4.73;;
20814;SDS011;10568;48.176;16.316;2023-12-07T01:55:54;10.00;;;4.87;;
20814;SDS011;10568;48.176;16.316;2023-12-07T01:58:21;6.47;;;4.47;;
20814;SDS011;10568;48.176;16.316;2023-12-07T02:00:47;6.53;;;4.57;;
20814;SDS011;10568;48.176;16.316;2023-12-07T02:03:13;7.77;;;4.73;;
20814;SDS011;10568;48.176;16.316;2023-12-07T02:05:42;6.70;;;4.27;;
20814;SDS011;10568;48.176;16.316;2023-12-07T02:08:12;5.40;;;3.90;;
20814;SDS011;10568;48.176;16.316;2023-12-07T02:10:38;6.33;;;4.50;;
20814;SDS011;10568;48.176;16.316;2023-12-07T02:13:04;7.03;;;4.47;;
20814;SDS011;10568;48.176;16.316;2023-12-07T02:15:30;7.80;;;4.63;;
20814;SDS011;10568;48.176;16.316;2023-12-07T02:18:00;6.23;;;4.30;;
20814;SDS011;10568;48.176;16.316;2023-12-07T02:20:45;5.93;;;4.50;;
20814;SDS011;10568;48.176;16.316;2023-12-07T02:23:17;7.47;;;3.37;;
20814;SDS011;10568;48.176;16.316;2023-12-07T02:25:53;6.50;;;4.20;;
20814;SDS011;10568;48.176;16.316;2023-12-07T02:28:19;7.53;;;4.70;;
20814;SDS011;10568;48.176;16.316;2023-12-07T02:30:45;8.57;;;5.13;;
20814;SDS011;10568;48.176;16.316;2023-12-07T02:33:11;7.60;;;4.80;;
20814;SDS011;10568;48.176;16.316;2023-12-07T02:35:38;9.63;;;5.47;;
20814;SDS011;10568;48.176;16.316;2023-12-07T02:38:05;9.10;;;5.07;;
20814;SDS011;10568;48.176;16.316;2023-12-07T02:40:33;8.87;;;4.53;;
20814;SDS011;10568;48.176;16.316;2023-12-07T02:43:00;7.13;;;4.80;;
20814;SDS011;10568;48.176;16.316;2023-12-07T02:45:28;8.57;;;5.23;;
20814;SDS011;10568;48.176;16.316;2023-12-07T02:47:55;7.87;;;5.17;;
20814;SDS011;10568;48.176;16.316;2023-12-07T02:50:23;8.27;;;4.93;;
20814;SDS011;10568;48.176;16.316;2023-12-07T02:52:49;7.67;;;4.80;;
20814;SDS011;10568;48.176;16.316;2023-12-07T02:55:15;7.37;;;4.63;;
20814;SDS011;10568;48.176;16.316;2023-12-07T02:57:40;8.17;;;5.03;;
20814;SDS011;10568;48.176;16.316;2023-12-07T03:00:06;8.47;;;5.27;;
20814;SDS011;10568;48.176;16.316;2023-12-07T03:02:33;8.73;;;5.30;;
20814;SDS011;10568;48.176;16.316;2023-12-07T03:05:00;6.30;;;4.67;;
20814;SDS011;10568;48.176;16.316;2023-12-07T03:07:26;9.20;;;4.90;;
20814;SDS011;10568;48.176;16.316;2023-12-07T03:09:52;8.37;;;5.27;;
20814;SDS011;10568;48.176;16.316;2023-12-07T03:12:17;7.33;;;4.77;;
20814;SDS011;10568;48.176;16.316;2023-12-07T03:14:43;6.57;;;4.77;;
20814;SDS011;10568;48.176;16.316;2023-12-07T03:17:09;7.60;;;5.47;;
20814;SDS011;10568;48.176;16.316;2023-12-07T03:19:38;9.17;;;5.40;;
20814;SDS011;10568;48.176;16.316;2023-12-07T03:25:01;7.37;;;5.10;;
20814;SDS011;10568;48.176;16.316;2023-12-07T03:27:26;9.23;;;5.23;;
20814;SDS011;10568;48.176;16.316;2023-12-07T03:29:53;9.13;;;5.60;;
20814;SDS011;10568;48.176;16.316;2023-12-07T03:32:19;9.13;;;4.60;;
20814;SDS011;10568;48.176;16.316;2023-12-07T03:34:45;6.87;;;4.50;;
20814;SDS011;10568;48.176;16.316;2023-12-07T03:37:10;8.73;;;4.60;;
20814;SDS011;10568;48.176;16.316;2023-12-07T03:39:36;10.60;;;5.27;;
20814;SDS011;10568;48.176;16.316;2023-12-07T03:42:02;7.87;;;4.63;;
20814;SDS011;10568;48.176;16.316;2023-12-07T03:44:28;8.20;;;5.27;;
20814;SDS011;10568;48.176;16.316;2023-12-07T03:46:55;9.73;;;5.30;;
20814;SDS011;10568;48.176;16.316;2023-12-07T03:49:22;9.17;;;5.23;;
20814;SDS011;10568;48.176;16.316;2023-12-07T03:51:47;7.30;;;5.37;;
20814;SDS011;10568;48.176;16.316;2023-12-07T03:54:13;8.70;;;5.50;;
20814;SDS011;10568;48.176;16.316;2023-12-07T03:56:39;8.57;;;5.37;;
20814;SDS011;10568;48.176;16.316;2023-12-07T03:59:06;10.77;;;5.63;;
20814;SDS011;10568;48.176;16.316;2023-12-07T04:01:31;6.83;;;4.63;;
20814;SDS011;10568;48.176;16.316;2023-12-07T04:03:57;5.10;;;3.77;;
20814;SDS011;10568;48.176;16.316;2023-12-07T04:06:24;10.47;;;5.33;;
20814;SDS011;10568;48.176;16.316;2023-12-07T04:08:50;7.20;;;4.33;;
20814;SDS011;10568;48.176;16.316;2023-12-07T04:11:16;6.83;;;4.40;;
20814;SDS011;10568;48.176;16.316;2023-12-07T04:13:41;9.43;;;5.40;;
20814;SDS011;10568;48.176;16.316;2023-12-07T04:16:08;7.10;;;5.07;;
20814;SDS011;10568;48.176;16.316;2023-12-07T04:18:35;7.30;;;5.10;;
20814;SDS011;10568;48.176;16.316;2023-12-07T04:21:01;10.50;;;5.27;;
20814;SDS011;10568;48.176;16.316;2023-12-07T04:23:27;8.17;;;5.00;;
20814;SDS011;10568;48.176;16.316;2023-12-07T04:25:53;8.10;;;5.37;;
20814;SDS011;10568;48.176;16.316;2023-12-07T04:28:19;9.50;;;5.53;;
20814;SDS011;10568;48.176;16.316;2023-12-07T04:30:45;8.57;;;5.03;;
20814;SDS011;10568;48.176;16.316;2023-12-07T04:33:11;11.33;;;6.00;;
20814;SDS011;10568;48.176;16.316;2023-12-07T04:35:36;8.03;;;5.27;;
20814;SDS011;10568;48.176;16.316;2023-12-07T04:38:02;7.97;;;5.07;;
20814;SDS011;10568;48.176;16.316;2023-12-07T04:40:28;8.37;;;5.63;;
20814;SDS011;10568;48.176;16.316;2023-12-07T04:42:54;11.97;;;5.73;;
20814;SDS011;10568;48.176;16.316;2023-12-07T04:45:19;8.87;;;5.30;;
20814;SDS011;10568;48.176;16.316;2023-12-07T04:47:45;9.10;;;5.63;;
20814;SDS011;10568;48.176;16.316;2023-12-07T04:50:11;8.07;;;4.80;;
20814;SDS011;10568;48.176;16.316;2023-12-07T04:52:37;8.17;;;5.23;;
20814;SDS011;10568;48.176;16.316;2023-12-07T04:55:04;7.77;;;5.33;;
20814;SDS011;10568;48.176;16.316;2023-12-07T04:57:36;8.77;;;5.20;;
20814;SDS011;10568;48.176;16.316;2023-12-07T05:00:05;7.53;;;4.80;;
20814;SDS011;10568;48.176;16.316;2023-12-07T05:02:31;8.27;;;5.37;;
20814;SDS011;10568;48.176;16.316;2023-12-07T05:04:57;8.93;;;5.07;;
20814;SDS011;10568;48.176;16.316;2023-12-07T05:07:23;10.93;;;5.87;;
20814;SDS011;10568;48.176;16.316;2023-12-07T05:09:49;11.60;;;6.40;;
20814;SDS011;10568;48.176;16.316;2023-12-07T05:12:18;8.67;;;5.27;;
20814;SDS011;10568;48.176;16.316;2023-12-07T05:14:44;9.67;;;5.43;;
20814;SDS011;10568;48.176;16.316;2023-12-07T05:17:09;10.97;;;5.27;;
20814;SDS011;10568;48.176;16.316;2023-12-07T05:19:35;9.30;;;5.33;;
20814;SDS011;10568;48.176;16.316;2023-12-07T05:22:01;12.47;;;6.27;;
20814;SDS011;10568;48.176;16.316;2023-12-07T05:24:27;10.77;;;6.13;;
20814;SDS011;10568;48.176;16.316;2023-12-07T05:26:53;10.63;;;6.37;;
20814;SDS011;10568;48.176;16.316;2023-12-07T05:29:19;8.87;;;6.00;;
20814;SDS011;10568;48.176;16.316;2023-12-07T05:31:48;14.20;;;6.37;;
20814;SDS011;10568;48.176;16.316;2023-12-07T05:34:15;9.07;;;5.70;;
20814;SDS011;10568;48.176;16.316;2023-12-07T05:36:43;9.47;;;5.60;;
20814;SDS011;10568;48.176;16.316;2023-12-07T05:39:11;10.33;;;6.07;;
20814;SDS011;10568;48.176;16.316;2023-12-07T05:41:38;11.17;;;6.17;;
20814;SDS011;10568;48.176;16.316;2023-12-07T05:44:04;9.77;;;5.47;;
20814;SDS011;10568;48.176;16.316;2023-12-07T05:46:30;9.33;;;5.50;;
20814;SDS011;10568;48.176;16.316;2023-12-07T05:48:56;8.83;;;5.80;;
20814;SDS011;10568;48.176;16.316;2023-12-07T05:51:22;12.70;;;6.17;;
20814;SDS011;10568;48.176;16.316;2023-12-07T05:53:48;11.30;;;6.20;;
20814;SDS011;10568;48.176;16.316;2023-12-07T05:56:17;10.10;;;5.63;;
20814;SDS011;10568;48.176;16.316;2023-12-07T05:58:46;12.13;;;5.40;;
20814;SDS011;10568;48.176;16.316;2023-12-07T06:01:18;9.30;;;5.53;;
20814;SDS011;10568;48.176;16.316;2023-12-07T06:03:45;9.67;;;5.80;;
20814;SDS011;10568;48.176;16.316;2023-12-07T06:06:11;11.13;;;6.63;;
20814;SDS011;10568;48.176;16.316;2023-12-07T06:08:37;10.90;;;6.30;;
20814;SDS011;10568;48.176;16.316;2023-12-07T06:11:03;11.00;;;6.40;;
20814;SDS011;10568;48.176;16.316;2023-12-07T06:13:29;13.40;;;6.47;;
20814;SDS011;10568;48.176;16.316;2023-12-07T06:15:55;11.87;;;5.93;;
20814;SDS011;10568;48.176;16.316;2023-12-07T06:18:21;11.43;;;5.97;;
20814;SDS011;10568;48.176;16.316;2023-12-07T06:20:46;8.60;;;5.10;;
20814;SDS011;10568;48.176;16.316;2023-12-07T06:23:12;11.23;;;6.23;;
20814;SDS011;10568;48.176;16.316;2023-12-07T06:25:40;9.67;;;5.83;;
20814;SDS011;10568;48.176;16.316;2023-12-07T06:28:06;8.57;;;5.13;;
20814;SDS011;10568;48.176;16.316;2023-12-07T06:30:32;9.73;;;5.83;;
20814;SDS011;10568;48.176;16.316;2023-12-07T06:32:58;10.17;;;6.63;;
20814;SDS011;10568;48.176;16.316;2023-12-07T06:35:24;9.67;;;6.13;;
20814;SDS011;10568;48.176;16.316;2023-12-07T06:37:50;10.87;;;6.20;;
20814;SDS011;10568;48.176;16.316;2023-12-07T06:40:15;9.67;;;5.57;;
20814;SDS011;10568;48.176;16.316;2023-12-07T06:42:41;10.87;;;6.13;;
20814;SDS011;10568;48.176;16.316;2023-12-07T06:45:07;10.40;;;6.33;;
20814;SDS011;10568;48.176;16.316;2023-12-07T06:47:36;10.43;;;6.20;;
20814;SDS011;10568;48.176;16.316;2023-12-07T06:50:03;8.20;;;5.90;;
20814;SDS011;10568;48.176;16.316;2023-12-07T06:52:30;9.13;;;5.53;;
20814;SDS011;10568;48.176;16.316;2023-12-07T06:54:55;11.43;;;5.77;;
20814;SDS011;10568;48.176;16.316;2023-12-07T06:57:21;13.10;;;6.13;;
20814;SDS011;10568;48.176;16.316;2023-12-07T06:59:47;10.20;;;5.93;;
20814;SDS011;10568;48.176;16.316;2023-12-07T07:02:12;12.70;;;6.33;;
20814;SDS011;10568;48.176;16.316;2023-12-07T07:04:38;12.07;;;5.93;;
20814;SDS011;10568;48.176;16.316;2023-12-07T07:07:04;9.90;;;5.80;;
20814;SDS011;10568;48.176;16.316;2023-12-07T07:09:29;7.97;;;5.13;;
20814;SDS011;10568;48.176;16.316;2023-12-07T07:11:55;9.43;;;5.60;;
20814;SDS011;10568;48.176;16.316;2023-12-07T07:14:21;8.93;;;5.70;;
20814;SDS011;10568;48.176;16.316;2023-12-07T07:16:47;10.93;;;6.10;;
20814;SDS011;10568;48.176;16.316;2023-12-07T07:19:13;11.73;;;6.70;;
20814;SDS011;10568;48.176;16.316;2023-12-07T07:21:39;9.53;;;5.67;;
20814;SDS011;10568;48.176;16.316;2023-12-07T07:24:05;9.07;;;5.83;;
20814;SDS011;10568;48.176;16.316;2023-12-07T07:26:31;13.63;;;6.17;;
20814;SDS011;10568;48.176;16.316;2023-12-07T07:28:57;10.13;;;5.63;;
20814;SDS011;10568;48.176;16.316;2023-12-07T07:31:23;9.30;;;6.03;;
20814;SDS011;10568;48.176;16.316;2023-12-07T07:33:49;11.03;;;5.57;;
20814;SDS011;10568;48.176;16.316;2023-12-07T07:36:14;7.53;;;5.07;;
20814;SDS011;10568;48.176;16.316;2023-12-07T07:38:41;10.17;;;6.10;;
20814;SDS011;10568;48.176;16.316;2023-12-07T07:41:07;9.20;;;6.27;;
20814;SDS011;10568;48.176;16.316;2023-12-07T07:43:32;12.40;;;6.57;;
20814;SDS011;10568;48.176;16.316;2023-12-07T07:46:00;8.63;;;5.40;;
20814;SDS011;10568;48.176;16.316;2023-12-07T07:48:26;11.07;;;5.97;;
20814;SDS011;10568;48.176;16.316;2023-12-07T07:50:51;10.57;;;5.90;;
20814;SDS011;10568;48.176;16.316;2023-12-07T07:53:17;8.93;;;5.83;;
20814;SDS011;10568;48.176;16.316;2023-12-07T07:55:43;9.43;;;5.93;;
20814;SDS011;10568;48.176;16.316;2023-12-07T07:58:09;14.43;;;6.40;;
20814;SDS011;10568;48.176;16.316;2023-12-07T08:00:50;10.20;;;6.07;;
20814;SDS011;10568;48.176;16.316;2023-12-07T08:03:17;10.67;;;5.60;;
20814;SDS011;10568;48.176;16.316;2023-12-07T08:05:42;10.53;;;6.20;;
20814;SDS011;10568;48.176;16.316;2023-12-07T08:08:08;8.80;;;5.13;;
20814;SDS011;10568;48.176;16.316;2023-12-07T08:10:35;10.27;;;6.17;;
20814;SDS011;10568;48.176;16.316;2023-12-07T08:13:01;12.73;;;5.90;;
20814;SDS011;10568;48.176;16.316;2023-12-07T08:15:26;11.63;;;5.97;;
20814;SDS011;10568;48.176;16.316;2023-12-07T08:17:52;10.80;;;5.73;;
20814;SDS011;10568;48.176;16.316;2023-12-07T08:20:18;12.07;;;6.43;;
20814;SDS011;10568;48.176;16.316;2023-12-07T08:22:43;10.77;;;6.33;;
20814;SDS011;10568;48.176;16.316;2023-12-07T08:25:10;8.20;;;5.23;;
20814;SDS011;10568;48.176;16.316;2023-12-07T08:27:37;12.10;;;7.50;;
20814;SDS011;10568;48.176;16.316;2023-12-07T08:30:03;12.77;;;7.07;;
20814;SDS011;10568;48.176;16.316;2023-12-07T08:32:30;13.97;;;6.33;;
20814;SDS011;10568;48.176;16.316;2023-12-07T08:34:56;12.03;;;7.07;;
20814;SDS011;10568;48.176;16.316;2023-12-07T08:37:22;11.80;;;6.10;;
20814;SDS011;10568;48.176;16.316;2023-12-07T08:39:48;12.47;;;5.83;;
20814;SDS011;10568;48.176;16.316;2023-12-07T08:42:14;9.70;;;5.80;;
20814;SDS011;10568;48.176;16.316;2023-12-07T08:44:40;11.70;;;7.03;;
20814;SDS011;10568;48.176;16.316;2023-12-07T08:47:07;11.07;;;6.37;;
20814;SDS011;10568;48.176;16.316;2023-12-07T08:49:33;11.67;;;6.70;;
20814;SDS011;10568;48.176;16.316;2023-12-07T08:51:59;9.20;;;6.20;;
20814;SDS011;10568;48.176;16.316;2023-12-07T08:54:24;8.87;;;5.33;;
20814;SDS011;10568;48.176;16.316;2023-12-07T08:56:51;8.00;;;4.43;;
20814;SDS011;10568;48.176;16.316;2023-12-07T08:59:16;10.73;;;5.97;;
20814;SDS011;10568;48.176;16.316;2023-12-07T09:01:42;10.87;;;5.80;;
20814;SDS011;10568;48.176;16.316;2023-12-07T09:04:08;11.53;;;6.00;;
20814;SDS011;10568;48.176;16.316;2023-12-07T09:06:34;11.70;;;6.57;;
20814;SDS011;10568;48.176;16.316;2023-12-07T09:09:02;7.03;;;5.33;;
20814;SDS011;10568;48.176;16.316;2023-12-07T09:11:29;8.67;;;5.47;;
20814;SDS011;10568;48.176;16.316;2023-12-07T09:13:57;10.23;;;6.30;;
20814;SDS011;10568;48.176;16.316;2023-12-07T09:16:23;10.20;;;5.90;;
20814;SDS011;10568;48.176;16.316;2023-12-07T09:18:51;11.30;;;7.17;;
20814;SDS011;10568;48.176;16.316;2023-12-07T09:21:17;10.10;;;5.97;;
20814;SDS011;10568;48.176;16.316;2023-12-07T09:23:42;10.10;;;5.87;;
20814;SDS011;10568;48.176;16.316;2023-12-07T09:26:09;10.50;;;5.87;;
20814;SDS011;10568;48.176;16.316;2023-12-07T09:28:35;9.93;;;6.20;;
20814;SDS011;10568;48.176;16.316;2023-12-07T09:31:01;11.43;;;5.87;;
20814;SDS011;10568;48.176;16.316;2023-12-07T09:33:26;10.63;;;6.53;;
20814;SDS011;10568;48.176;16.316;2023-12-07T09:35:52;10.83;;;6.30;;
20814;SDS011;10568;48.176;16.316;2023-12-07T09:38:18;10.73;;;5.83;;
20814;SDS011;10568;48.176;16.316;2023-12-07T09:40:44;8.40;;;4.97;;
20814;SDS011;10568;48.176;16.316;2023-12-07T09:43:11;9.03;;;5.60;;
20814;SDS011;10568;48.176;16.316;2023-12-07T09:45:37;10.57;;;5.93;;
20814;SDS011;10568;48.176;16.316;2023-12-07T09:48:03;9.17;;;6.03;;
20814;SDS011;10568;48.176;16.316;2023-12-07T09:50:30;9.37;;;6.20;;
20814;SDS011;10568;48.176;16.316;2023-12-07T09:52:57;9.63;;;5.37;;
20814;SDS011;10568;48.176;16.316;2023-12-07T09:55:23;8.60;;;5.27;;
20814;SDS011;10568;48.176;16.316;2023-12-07T09:57:52;9.53;;;5.53;;
20814;SDS011;10568;48.176;16.316;2023-12-07T10:00:30;9.23;;;5.30;;
20814;SDS011;10568;48.176;16.316;2023-12-07T10:02:58;8.10;;;5.23;;
20814;SDS011;10568;48.176;16.316;2023-12-07T10:05:23;10.63;;;5.70;;
20814;SDS011;10568;48.176;16.316;2023-12-07T10:07:51;6.87;;;4.67;;
20814;SDS011;10568;48.176;16.316;2023-12-07T10:10:17;8.77;;;5.40;;
20814;SDS011;10568;48.176;16.316;2023-12-07T10:12:48;7.77;;;5.13;;
20814;SDS011;10568;48.176;16.316;2023-12-07T10:15:21;9.23;;;6.03;;
20814;SDS011;10568;48.176;16.316;2023-12-07T10:20:18;10.13;;;5.83;;
20814;SDS011;10568;48.176;16.316;2023-12-07T10:23:04;8.77;;;5.60;;
20814;SDS011;10568;48.176;16.316;2023-12-07T10:25:33;10.13;;;5.87;;
20814;SDS011;10568;48.176;16.316;2023-12-07T10:28:07;14.17;;;6.60;;
20814;SDS011;10568;48.176;16.316;2023-12-07T10:30:35;9.70;;;5.93;;
20814;SDS011;10568;48.176;16.316;2023-12-07T10:33:04;12.47;;;7.10;;
20814;SDS011;10568;48.176;16.316;2023-12-07T10:35:32;9.30;;;5.53;;
20814;SDS011;10568;48.176;16.316;2023-12-07T10:37:58;9.07;;;5.77;;
20814;SDS011;10568;48.176;16.316;2023-12-07T10:40:25;11.33;;;5.97;;
20814;SDS011;10568;48.176;16.316;2023-12-07T10:42:52;7.10;;;5.47;;
20814;SDS011;10568;48.176;16.316;2023-12-07T10:45:20;11.17;;;5.93;;
20814;SDS011;10568;48.176;16.316;2023-12-07T10:47:50;11.83;;;6.53;;
20814;SDS011;10568;48.176;16.316;2023-12-07T10:50:20;10.47;;;5.10;;
20814;SDS011;10568;48.176;16.316;2023-12-07T10:52:51;10.20;;;5.50;;
20814;SDS011;10568;48.176;16.316;2023-12-07T10:55:21;12.40;;;6.17;;
20814;SDS011;10568;48.176;16.316;2023-12-07T10:57:54;8.47;;;5.63;;
20814;SDS011;10568;48.176;16.316;2023-12-07T11:00:21;9.33;;;5.77;;
20814;SDS011;10568;48.176;16.316;2023-12-07T11:02:53;10.07;;;5.80;;
20814;SDS011;10568;48.176;16.316;2023-12-07T11:05:19;8.73;;;5.60;;
20814;SDS011;10568;48.176;16.316;2023-12-07T11:07:57;7.77;;;5.70;;
20814;SDS011;10568;48.176;16.316;2023-12-07T11:10:43;11.37;;;6.10;;
20814;SDS011;10568;48.176;16.316;2023-12-07T11:13:20;7.20;;;4.93;;
20814;SDS011;10568;48.176;16.316;2023-12-07T11:15:52;10.50;;;6.13;;
20814;SDS011;10568;48.176;16.316;2023-12-07T11:18:17;11.10;;;6.03;;
20814;SDS011;10568;48.176;16.316;2023-12-07T11:20:44;10.37;;;5.13;;
20814;SDS011;10568;48.176;16.316;2023-12-07T11:23:16;10.13;;;6.47;;
20814;SDS011;10568;48.176;16.316;2023-12-07T11:25:44;11.47;;;6.27;;
20814;SDS011;10568;48.176;16.316;2023-12-07T11:28:11;10.83;;;5.87;;
20814;SDS011;10568;48.176;16.316;2023-12-07T11:30:37;10.70;;;5.77;;
20814;SDS011;10568;48.176;16.316;2023-12-07T11:33:06;9.70;;;6.63;;
20814;SDS011;10568;48.176;16.316;2023-12-07T11:35:33;8.90;;;6.10;;
20814;SDS011;10568;48.176;16.316;2023-12-07T11:38:21;7.70;;;4.37;;
20814;SDS011;10568;48.176;16.316;2023-12-07T11:40:50;12.40;;;5.57;;
20814;SDS011;10568;48.176;16.316;2023-12-07T11:46:09;9.20;;;6.17;;
20814;SDS011;10568;48.176;16.316;2023-12-07T11:48:35;12.17;;;6.47;;
20814;SDS011;10568;48.176;16.316;2023-12-07T11:51:02;13.53;;;7.03;;
20814;SDS011;10568;48.176;16.316;2023-12-07T11:53:30;9.63;;;5.70;;
20814;SDS011;10568;48.176;16.316;2023-12-07T11:55:59;11.07;;;6.23;;
20814;SDS011;10568;48.176;16.316;2023-12-07T11:58:32;11.17;;;6.23;;
20814;SDS011;10568;48.176;16.316;2023-12-07T12:01:00;11.93;;;5.63;;
20814;SDS011;10568;48.176;16.316;2023-12-07T12:03:27;9.73;;;6.53;;
20814;SDS011;10568;48.176;16.316;2023-12-07T12:05:55;10.60;;;6.20;;
20814;SDS011;10568;48.176;16.316;2023-12-07T12:08:21;11.53;;;6.13;;
20814;SDS011;10568;48.176;16.316;2023-12-07T12:10:48;10.17;;;5.83;;
20814;SDS011;10568;48.176;16.316;2023-12-07T12:13:16;11.30;;;6.50;;
20814;SDS011;10568;48.176;16.316;2023-12-07T12:15:42;8.63;;;5.57;;
20814;SDS011;10568;48.176;16.316;2023-12-07T12:18:08;12.27;;;6.47;;
20814;SDS011;10568;48.176;16.316;2023-12-07T12:20:34;11.33;;;6.70;;
20814;SDS011;10568;48.176;16.316;2023-12-07T12:23:00;11.43;;;6.83;;
20814;SDS011;10568;48.176;16.316;2023-12-07T12:25:27;10.90;;;5.77;;
20814;SDS011;10568;48.176;16.316;2023-12-07T12:28:07;10.80;;;6.37;;
20814;SDS011;10568;48.176;16.316;2023-12-07T12:30:34;7.77;;;6.00;;
20814;SDS011;10568;48.176;16.316;2023-12-07T12:33:01;9.10;;;5.63;;
20814;SDS011;10568;48.176;16.316;2023-12-07T12:35:28;9.90;;;6.40;;
20814;SDS011;10568;48.176;16.316;2023-12-07T12:37:54;12.00;;;6.57;;
20814;SDS011;10568;48.176;16.316;2023-12-07T12:40:21;11.77;;;6.47;;
20814;SDS011;10568;48.176;16.316;2023-12-07T12:42:49;10.67;;;5.93;;
20814;SDS011;10568;48.176;16.316;2023-12-07T12:45:16;10.43;;;6.57;;
20814;SDS011;10568;48.176;16.316;2023-12-07T12:47:43;11.57;;;6.23;;
20814;SDS011;10568;48.176;16.316;2023-12-07T12:50:10;10.37;;;5.83;;
20814;SDS011;10568;48.176;16.316;2023-12-07T12:52:39;12.17;;;6.47;;
20814;SDS011;10568;48.176;16.316;2023-12-07T12:55:08;12.30;;;6.40;;
20814;SDS011;10568;48.176;16.316;2023-12-07T12:57:35;12.33;;;6.90;;
20814;SDS011;10568;48.176;16.316;2023-12-07T13:00:03;11.47;;;6.97;;
20814;SDS011;10568;48.176;16.316;2023-12-07T13:02:29;13.00;;;6.37;;
20814;SDS011;10568;48.176;16.316;2023-12-07T13:04:55;12.20;;;6.90;;
20814;SDS011;10568;48.176;16.316;2023-12-07T13:07:23;10.70;;;6.23;;
20814;SDS011;10568;48.176;16.316;2023-12-07T13:09:52;10.60;;;6.83;;
20814;SDS011;10568;48.176;16.316;2023-12-07T13:12:18;12.27;;;6.60;;
20814;SDS011;10568;48.176;16.316;2023-12-07T13:14:43;10.27;;;7.13;;
20814;SDS011;10568;48.176;16.316;2023-12-07T13:17:09;10.50;;;6.73;;
20814;SDS011;10568;48.176;16.316;2023-12-07T13:19:35;13.03;;;7.03;;
20814;SDS011;10568;48.176;16.316;2023-12-07T13:22:01;10.23;;;6.80;;
20814;SDS011;10568;48.176;16.316;2023-12-07T13:24:28;10.67;;;7.20;;
20814;SDS011;10568;48.176;16.316;2023-12-07T13:26:54;11.27;;;6.17;;
20814;SDS011;10568;48.176;16.316;2023-12-07T13:29:21;9.57;;;6.43;;
20814;SDS011;10568;48.176;16.316;2023-12-07T13:31:48;11.33;;;6.83;;
20814;SDS011;10568;48.176;16.316;2023-12-07T13:34:14;11.03;;;7.07;;
20814;SDS011;10568;48.176;16.316;2023-12-07T13:36:40;12.63;;;7.00;;
20814;SDS011;10568;48.176;16.316;2023-12-07T13:39:06;10.10;;;6.93;;
20814;SDS011;10568;48.176;16.316;2023-12-07T13:41:33;10.83;;;6.97;;
20814;SDS011;10568;48.176;16.316;2023-12-07T13:43:59;13.77;;;6.60;;
20814;SDS011;10568;48.176;16.316;2023-12-07T13:46:26;11.53;;;6.67;;
20814;SDS011;10568;48.176;16.316;2023-12-07T13:48:52;13.00;;;7.23;;
20814;SDS011;10568;48.176;16.316;2023-12-07T13:51:18;12.80;;;7.40;;
20814;SDS011;10568;48.176;16.316;2023-12-07T13:53:45;11.63;;;6.60;;
20814;SDS011;10568;48.176;16.316;2023-12-07T13:56:11;11.93;;;7.73;;
20814;SDS011;10568;48.176;16.316;2023-12-07T13:58:36;12.17;;;7.10;;
20814;SDS011;10568;48.176;16.316;2023-12-07T14:01:04;13.40;;;7.47;;
20814;SDS011;10568;48.176;16.316;2023-12-07T14:03:30;10.77;;;6.87;;
20814;SDS011;10568;48.176;16.316;2023-12-07T14:05:56;10.63;;;6.87;;
20814;SDS011;10568;48.176;16.316;2023-12-07T14:08:22;13.90;;;7.30;;
20814;SDS011;10568;48.176;16.316;2023-12-07T14:10:48;12.47;;;7.07;;
20814;SDS011;10568;48.176;16.316;2023-12-07T14:13:13;12.10;;;7.40;;
20814;SDS011;10568;48.176;16.316;2023-12-07T14:15:42;11.80;;;6.37;;
20814;SDS011;10568;48.176;16.316;2023-12-07T14:18:08;12.97;;;7.03;;
20814;SDS011;10568;48.176;16.316;2023-12-07T14:20:34;12.03;;;7.40;;
20814;SDS011;10568;48.176;16.316;2023-12-07T14:23:01;15.03;;;7.93;;
20814;SDS011;10568;48.176;16.316;2023-12-07T14:25:30;9.43;;;6.87;;
20814;SDS011;10568;48.176;16.316;2023-12-07T14:27:56;14.20;;;6.90;;
20814;SDS011;10568;48.176;16.316;2023-12-07T14:30:22;11.77;;;6.80;;
20814;SDS011;10568;48.176;16.316;2023-12-07T14:32:48;13.53;;;7.80;;
20814;SDS011;10568;48.176;16.316;2023-12-07T14:35:17;12.03;;;7.00;;